sensor_id;sensor_type;location;lat;lon;timestamp;P1;durP1;ratioP1;P2;durP2;ratioP2
3004;SDS011;1512;51.486;6.610;2023-04-01T00:02:30;5.63;;;2.00;;
3004;SDS011;1512;51.486;6.610;2023-04-01T00:06:39;5.23;;;2.67;;
3004;SDS011;1512;51.486;6.610;2023-04-01T00:10:48;3.67;;;2.47;;
3004;SDS011;1512;51.486;6.610;2023-04-01T00:14:57;3.10;;;1.93;;
3004;SDS011;1512;51.486;6.610;2023-04-01T00:19:05;2.93;;;2.20;;
3004;SDS011;1512;51.486;6.610;2023-04-01T00:23:14;4.70;;;2.60;;
3004;SDS011;1512;51.486;6.610;2023-04-01T00:27:24;2.27;;;2.07;;
3004;SDS011;1512;51.486;6.610;2023-04-01T00:31:33;3.43;;;2.00;;
3004;SDS011;1512;51.486;6.610;2023-04-01T00:35:42;2.57;;;2.37;;
3004;SDS011;1512;51.486;6.610;2023-04-01T00:39:51;2.27;;;2.07;;
3004;SDS011;1512;51.486;6.610;2023-04-01T00:44:20;2.50;;;2.20;;
3004;SDS011;1512;51.486;6.610;2023-04-01T00:48:31;2.37;;;2.17;;
3004;SDS011;1512;51.486;6.610;2023-04-01T00:52:42;2.77;;;2.20;;
3004;SDS011;1512;51.486;6.610;2023-04-01T00:56:52;2.20;;;1.93;;
3004;SDS011;1512;51.486;6.610;2023-04-01T01:01:05;2.20;;;2.00;;
3004;SDS011;1512;51.486;6.610;2023-04-01T01:05:16;2.10;;;2.00;;
3004;SDS011;1512;51.486;6.610;2023-04-01T01:09:30;2.93;;;2.20;;
3004;SDS011;1512;51.486;6.610;2023-04-01T01:22:54;1.60;;;1.50;;
3004;SDS011;1512;51.486;6.610;2023-04-01T01:27:04;2.30;;;2.10;;
3004;SDS011;1512;51.486;6.610;2023-04-01T01:31:17;1.97;;;1.87;;
3004;SDS011;1512;51.486;6.610;2023-04-01T01:39:43;2.40;;;2.20;;
3004;SDS011;1512;51.486;6.610;2023-04-01T01:43:54;4.70;;;2.53;;
3004;SDS011;1512;51.486;6.610;2023-04-01T01:48:04;2.20;;;2.00;;
3004;SDS011;1512;51.486;6.610;2023-04-01T01:52:14;4.07;;;2.20;;
3004;SDS011;1512;51.486;6.610;2023-04-01T01:56:25;1.77;;;1.67;;
3004;SDS011;1512;51.486;6.610;2023-04-01T02:00:37;2.23;;;2.10;;
3004;SDS011;1512;51.486;6.610;2023-04-01T02:04:47;2.10;;;1.90;;
3004;SDS011;1512;51.486;6.610;2023-04-01T02:08:59;3.50;;;1.90;;
3004;SDS011;1512;51.486;6.610;2023-04-01T02:13:13;1.80;;;1.60;;
3004;SDS011;1512;51.486;6.610;2023-04-01T02:17:28;2.70;;;2.17;;
3004;SDS011;1512;51.486;6.610;2023-04-01T02:26:07;2.20;;;2.00;;
3004;SDS011;1512;51.486;6.610;2023-04-01T02:30:18;2.60;;;2.10;;
3004;SDS011;1512;51.486;6.610;2023-04-01T02:34:28;1.90;;;1.67;;
3004;SDS011;1512;51.486;6.610;2023-04-01T02:38:37;1.90;;;1.80;;
3004;SDS011;1512;51.486;6.610;2023-04-01T02:42:47;2.27;;;2.07;;
3004;SDS011;1512;51.486;6.610;2023-04-01T02:46:56;7.93;;;2.23;;
3004;SDS011;1512;51.486;6.610;2023-04-01T02:51:04;2.70;;;1.97;;
3004;SDS011;1512;51.486;6.610;2023-04-01T02:55:14;1.87;;;1.77;;
3004;SDS011;1512;51.486;6.610;2023-04-01T02:59:23;1.90;;;1.80;;
3004;SDS011;1512;51.486;6.610;2023-04-01T03:03:31;4.20;;;1.80;;
3004;SDS011;1512;51.486;6.610;2023-04-01T03:07:40;2.20;;;2.00;;
3004;SDS011;1512;51.486;6.610;2023-04-01T03:11:49;2.20;;;2.00;;
3004;SDS011;1512;51.486;6.610;2023-04-01T03:15:58;1.80;;;1.70;;
3004;SDS011;1512;51.486;6.610;2023-04-01T03:20:07;2.13;;;1.93;;
3004;SDS011;1512;51.486;6.610;2023-04-01T03:24:17;2.00;;;1.77;;
3004;SDS011;1512;51.486;6.610;2023-04-01T03:28:26;2.13;;;1.93;;
3004;SDS011;1512;51.486;6.610;2023-04-01T03:32:34;3.03;;;2.10;;
3004;SDS011;1512;51.486;6.610;2023-04-01T03:36:43;1.90;;;1.80;;
3004;SDS011;1512;51.486;6.610;2023-04-01T03:40:52;2.10;;;1.90;;
3004;SDS011;1512;51.486;6.610;2023-04-01T03:45:01;2.67;;;2.30;;
3004;SDS011;1512;51.486;6.610;2023-04-01T03:49:11;3.30;;;2.47;;
3004;SDS011;1512;51.486;6.610;2023-04-01T03:53:20;2.95;;;2.42;;
3004;SDS011;1512;51.486;6.610;2023-04-01T03:57:30;2.10;;;1.90;;
3004;SDS011;1512;51.486;6.610;2023-04-01T04:01:39;2.37;;;2.10;;
3004;SDS011;1512;51.486;6.610;2023-04-01T04:05:48;3.07;;;2.70;;
3004;SDS011;1512;51.486;6.610;2023-04-01T04:09:57;2.70;;;2.37;;
3004;SDS011;1512;51.486;6.610;2023-04-01T04:14:06;4.23;;;2.40;;
3004;SDS011;1512;51.486;6.610;2023-04-01T04:18:15;2.57;;;2.37;;
3004;SDS011;1512;51.486;6.610;2023-04-01T04:22:24;3.60;;;2.27;;
3004;SDS011;1512;51.486;6.610;2023-04-01T04:26:32;5.47;;;2.90;;
3004;SDS011;1512;51.486;6.610;2023-04-01T04:30:41;3.17;;;2.70;;
3004;SDS011;1512;51.486;6.610;2023-04-01T04:34:50;3.00;;;2.37;;
3004;SDS011;1512;51.486;6.610;2023-04-01T04:38:58;2.40;;;2.20;;
3004;SDS011;1512;51.486;6.610;2023-04-01T04:43:14;2.72;;;2.52;;
3004;SDS011;1512;51.486;6.610;2023-04-01T04:47:20;2.63;;;2.43;;
3004;SDS011;1512;51.486;6.610;2023-04-01T04:51:28;2.97;;;2.67;;
3004;SDS011;1512;51.486;6.610;2023-04-01T04:55:37;2.40;;;2.20;;
3004;SDS011;1512;51.486;6.610;2023-04-01T04:59:48;3.40;;;2.70;;
3004;SDS011;1512;51.486;6.610;2023-04-01T05:03:56;2.50;;;2.30;;
3004;SDS011;1512;51.486;6.610;2023-04-01T05:08:05;3.07;;;2.80;;
3004;SDS011;1512;51.486;6.610;2023-04-01T05:12:14;2.80;;;2.60;;
3004;SDS011;1512;51.486;6.610;2023-04-01T05:16:23;4.47;;;3.30;;
3004;SDS011;1512;51.486;6.610;2023-04-01T05:20:31;3.13;;;2.63;;
3004;SDS011;1512;51.486;6.610;2023-04-01T05:24:40;2.50;;;2.30;;
3004;SDS011;1512;51.486;6.610;2023-04-01T05:28:49;2.53;;;2.33;;
3004;SDS011;1512;51.486;6.610;2023-04-01T05:32:57;2.53;;;2.33;;
3004;SDS011;1512;51.486;6.610;2023-04-01T05:37:06;4.57;;;2.50;;
3004;SDS011;1512;51.486;6.610;2023-04-01T05:41:15;3.90;;;3.50;;
3004;SDS011;1512;51.486;6.610;2023-04-01T05:45:24;3.80;;;3.50;;
3004;SDS011;1512;51.486;6.610;2023-04-01T05:49:33;4.10;;;3.60;;
3004;SDS011;1512;51.486;6.610;2023-04-01T05:53:42;3.87;;;3.47;;
3004;SDS011;1512;51.486;6.610;2023-04-01T05:57:50;4.80;;;3.93;;
3004;SDS011;1512;51.486;6.610;2023-04-01T06:01:59;4.63;;;3.90;;
3004;SDS011;1512;51.486;6.610;2023-04-01T06:06:15;4.47;;;3.53;;
3004;SDS011;1512;51.486;6.610;2023-04-01T06:10:33;4.70;;;3.37;;
3004;SDS011;1512;51.486;6.610;2023-04-01T06:23:28;4.47;;;3.60;;
3004;SDS011;1512;51.486;6.610;2023-04-01T06:27:46;4.60;;;3.90;;
3004;SDS011;1512;51.486;6.610;2023-04-01T06:45:06;4.57;;;3.70;;
3004;SDS011;1512;51.486;6.610;2023-04-01T06:50:05;4.10;;;3.70;;
3004;SDS011;1512;51.486;6.610;2023-04-01T06:58:20;5.13;;;4.30;;
3004;SDS011;1512;51.486;6.610;2023-04-01T07:02:50;4.63;;;4.17;;
3004;SDS011;1512;51.486;6.610;2023-04-01T07:07:01;5.80;;;4.67;;
3004;SDS011;1512;51.486;6.610;2023-04-01T07:11:16;4.80;;;4.30;;
3004;SDS011;1512;51.486;6.610;2023-04-01T07:15:42;4.23;;;3.73;;
3004;SDS011;1512;51.486;6.610;2023-04-01T07:19:56;6.40;;;4.80;;
3004;SDS011;1512;51.486;6.610;2023-04-01T07:24:25;5.37;;;4.47;;
3004;SDS011;1512;51.486;6.610;2023-04-01T07:28:37;5.03;;;3.93;;
3004;SDS011;1512;51.486;6.610;2023-04-01T07:37:13;4.77;;;3.80;;
3004;SDS011;1512;51.486;6.610;2023-04-01T07:41:32;5.50;;;4.13;;
3004;SDS011;1512;51.486;6.610;2023-04-01T07:50:19;5.80;;;4.23;;
3004;SDS011;1512;51.486;6.610;2023-04-01T07:54:43;4.97;;;4.27;;
3004;SDS011;1512;51.486;6.610;2023-04-01T08:08:15;5.73;;;3.80;;
3004;SDS011;1512;51.486;6.610;2023-04-01T08:12:45;5.60;;;3.70;;
3004;SDS011;1512;51.486;6.610;2023-04-01T08:21:16;9.33;;;4.90;;
3004;SDS011;1512;51.486;6.610;2023-04-01T08:25:28;4.27;;;3.50;;
3004;SDS011;1512;51.486;6.610;2023-04-01T08:29:41;4.03;;;3.70;;
3004;SDS011;1512;51.486;6.610;2023-04-01T08:33:57;5.83;;;4.13;;
3004;SDS011;1512;51.486;6.610;2023-04-01T08:38:16;5.77;;;3.50;;
3004;SDS011;1512;51.486;6.610;2023-04-01T08:42:29;4.80;;;3.60;;
3004;SDS011;1512;51.486;6.610;2023-04-01T08:46:57;6.10;;;4.03;;
3004;SDS011;1512;51.486;6.610;2023-04-01T09:00:30;6.67;;;5.10;;
3004;SDS011;1512;51.486;6.610;2023-04-01T09:04:49;7.37;;;5.40;;
3004;SDS011;1512;51.486;6.610;2023-04-01T09:13:14;7.08;;;5.40;;
3004;SDS011;1512;51.486;6.610;2023-04-01T09:31:10;9.33;;;5.87;;
3004;SDS011;1512;51.486;6.610;2023-04-01T09:53:01;8.00;;;5.50;;
3004;SDS011;1512;51.486;6.610;2023-04-01T10:06:27;6.50;;;5.43;;
3004;SDS011;1512;51.486;6.610;2023-04-01T10:10:42;8.30;;;5.67;;
3004;SDS011;1512;51.486;6.610;2023-04-01T10:15:13;8.30;;;5.90;;
3004;SDS011;1512;51.486;6.610;2023-04-01T10:37:43;10.30;;;7.47;;
3004;SDS011;1512;51.486;6.610;2023-04-01T10:42:11;8.10;;;7.30;;
3004;SDS011;1512;51.486;6.610;2023-04-01T11:26:32;12.33;;;7.17;;
3004;SDS011;1512;51.486;6.610;2023-04-01T11:40:01;7.33;;;5.50;;
3004;SDS011;1512;51.486;6.610;2023-04-01T11:44:35;10.90;;;5.80;;
3004;SDS011;1512;51.486;6.610;2023-04-01T11:49:16;7.27;;;6.10;;
3004;SDS011;1512;51.486;6.610;2023-04-01T12:06:52;13.27;;;9.10;;
3004;SDS011;1512;51.486;6.610;2023-04-01T12:11:15;9.07;;;7.83;;
3004;SDS011;1512;51.486;6.610;2023-04-01T12:46:57;9.07;;;6.43;;
3004;SDS011;1512;51.486;6.610;2023-04-01T12:55:41;8.07;;;6.60;;
3004;SDS011;1512;51.486;6.610;2023-04-01T13:04:39;7.10;;;6.40;;
3004;SDS011;1512;51.486;6.610;2023-04-01T13:17:32;8.17;;;5.73;;
3004;SDS011;1512;51.486;6.610;2023-04-01T13:53:23;8.03;;;6.20;;
3004;SDS011;1512;51.486;6.610;2023-04-01T13:58:02;7.50;;;6.33;;
3004;SDS011;1512;51.486;6.610;2023-04-01T14:02:18;7.07;;;6.37;;
3004;SDS011;1512;51.486;6.610;2023-04-01T14:06:46;11.03;;;6.93;;
3004;SDS011;1512;51.486;6.610;2023-04-01T14:11:13;8.67;;;6.00;;
3004;SDS011;1512;51.486;6.610;2023-04-01T14:15:25;8.37;;;6.30;;
3004;SDS011;1512;51.486;6.610;2023-04-01T14:33:15;8.70;;;5.93;;
3004;SDS011;1512;51.486;6.610;2023-04-01T14:50:55;7.37;;;6.47;;
3004;SDS011;1512;51.486;6.610;2023-04-01T14:55:27;9.80;;;7.70;;
3004;SDS011;1512;51.486;6.610;2023-04-01T14:59:46;11.40;;;7.00;;
3004;SDS011;1512;51.486;6.610;2023-04-01T15:03:51;6.97;;;5.27;;
3004;SDS011;1512;51.486;6.610;2023-04-01T15:08:19;6.30;;;5.70;;
3004;SDS011;1512;51.486;6.610;2023-04-01T15:12:35;7.33;;;6.63;;
3004;SDS011;1512;51.486;6.610;2023-04-01T15:30:02;9.10;;;6.77;;
3004;SDS011;1512;51.486;6.610;2023-04-01T15:48:20;5.97;;;5.37;;
3004;SDS011;1512;51.486;6.610;2023-04-01T15:51:58;10.83;;;6.83;;
3004;SDS011;1512;51.486;6.610;2023-04-01T16:05:37;7.90;;;6.90;;
3004;SDS011;1512;51.486;6.610;2023-04-01T16:14:13;9.60;;;6.30;;
3004;SDS011;1512;51.486;6.610;2023-04-01T16:18:53;7.03;;;5.90;;
3004;SDS011;1512;51.486;6.610;2023-04-01T16:23:26;6.07;;;5.47;;
3004;SDS011;1512;51.486;6.610;2023-04-01T16:32:17;9.53;;;5.90;;
3004;SDS011;1512;51.486;6.610;2023-04-01T16:36:32;6.13;;;5.53;;
3004;SDS011;1512;51.486;6.610;2023-04-01T16:40:50;7.00;;;5.37;;
3004;SDS011;1512;51.486;6.610;2023-04-01T16:53:47;10.27;;;6.17;;
3004;SDS011;1512;51.486;6.610;2023-04-01T16:57:57;9.30;;;6.93;;
3004;SDS011;1512;51.486;6.610;2023-04-01T17:02:09;12.13;;;7.00;;
3004;SDS011;1512;51.486;6.610;2023-04-01T17:19:48;9.17;;;6.27;;
3004;SDS011;1512;51.486;6.610;2023-04-01T17:24:00;6.03;;;5.40;;
3004;SDS011;1512;51.486;6.610;2023-04-01T17:46:10;10.63;;;7.37;;
3004;SDS011;1512;51.486;6.610;2023-04-01T18:18:04;9.60;;;7.77;;
3004;SDS011;1512;51.486;6.610;2023-04-01T18:22:28;12.93;;;10.33;;
3004;SDS011;1512;51.486;6.610;2023-04-01T18:31:38;11.13;;;7.83;;
3004;SDS011;1512;51.486;6.610;2023-04-01T18:40:10;15.47;;;9.57;;
3004;SDS011;1512;51.486;6.610;2023-04-01T18:53:30;11.17;;;6.77;;
3004;SDS011;1512;51.486;6.610;2023-04-01T18:57:58;6.47;;;4.57;;
3004;SDS011;1512;51.486;6.610;2023-04-01T19:02:29;4.33;;;3.93;;
3004;SDS011;1512;51.486;6.610;2023-04-01T19:06:44;4.10;;;3.70;;
3004;SDS011;1512;51.486;6.610;2023-04-01T19:19:56;5.10;;;3.60;;
3004;SDS011;1512;51.486;6.610;2023-04-01T19:24:20;3.60;;;3.23;;
3004;SDS011;1512;51.486;6.610;2023-04-01T19:46:45;3.43;;;3.13;;
3004;SDS011;1512;51.486;6.610;2023-04-01T19:50:57;4.37;;;3.30;;
3004;SDS011;1512;51.486;6.610;2023-04-01T19:59:45;6.70;;;3.27;;
3004;SDS011;1512;51.486;6.610;2023-04-01T20:03:54;3.33;;;3.13;;
3004;SDS011;1512;51.486;6.610;2023-04-01T20:08:12;3.57;;;3.27;;
3004;SDS011;1512;51.486;6.610;2023-04-01T20:12:46;3.87;;;3.10;;
3004;SDS011;1512;51.486;6.610;2023-04-01T20:21:33;3.50;;;3.20;;
3004;SDS011;1512;51.486;6.610;2023-04-01T20:25:46;3.17;;;2.87;;
3004;SDS011;1512;51.486;6.610;2023-04-01T20:57:25;5.43;;;3.33;;
3004;SDS011;1512;51.486;6.610;2023-04-01T21:10:11;3.70;;;3.30;;
3004;SDS011;1512;51.486;6.610;2023-04-01T21:14:35;3.33;;;2.73;;
3004;SDS011;1512;51.486;6.610;2023-04-01T21:27:32;4.20;;;3.70;;
3004;SDS011;1512;51.486;6.610;2023-04-01T21:36:39;4.13;;;3.37;;
3004;SDS011;1512;51.486;6.610;2023-04-01T21:41:02;3.93;;;3.37;;
3004;SDS011;1512;51.486;6.610;2023-04-01T21:59:24;3.47;;;3.17;;
3004;SDS011;1512;51.486;6.610;2023-04-01T22:08:08;4.50;;;3.57;;
3004;SDS011;1512;51.486;6.610;2023-04-01T22:21:03;4.00;;;3.70;;
3004;SDS011;1512;51.486;6.610;2023-04-01T22:25:19;3.73;;;3.40;;
3004;SDS011;1512;51.486;6.610;2023-04-01T22:34:10;4.17;;;3.77;;
3004;SDS011;1512;51.486;6.610;2023-04-01T22:38:33;4.67;;;4.20;;
3004;SDS011;1512;51.486;6.610;2023-04-01T22:42:43;5.27;;;2.90;;
3004;SDS011;1512;51.486;6.610;2023-04-01T22:47:01;5.00;;;3.60;;
3004;SDS011;1512;51.486;6.610;2023-04-01T22:52:12;3.77;;;3.47;;
3004;SDS011;1512;51.486;6.610;2023-04-01T22:55:38;4.60;;;4.03;;
3004;SDS011;1512;51.486;6.610;2023-04-01T22:59:52;3.20;;;2.90;;
3004;SDS011;1512;51.486;6.610;2023-04-01T23:04:04;5.63;;;3.70;;
3004;SDS011;1512;51.486;6.610;2023-04-01T23:12:35;3.87;;;3.47;;
3004;SDS011;1512;51.486;6.610;2023-04-01T23:16:45;3.73;;;3.33;;
3004;SDS011;1512;51.486;6.610;2023-04-01T23:21:06;4.13;;;3.73;;
3004;SDS011;1512;51.486;6.610;2023-04-01T23:25:37;4.23;;;3.83;;
3004;SDS011;1512;51.486;6.610;2023-04-01T23:29:53;4.10;;;3.63;;
3004;SDS011;1512;51.486;6.610;2023-04-01T23:38:24;3.67;;;3.23;;
3004;SDS011;1512;51.486;6.610;2023-04-01T23:42:38;3.80;;;3.23;;
3004;SDS011;1512;51.486;6.610;2023-04-01T23:46:48;3.50;;;3.20;;
3004;SDS011;1512;51.486;6.610;2023-04-01T23:50:58;3.60;;;3.30;;
3004;SDS011;1512;51.486;6.610;2023-04-01T23:55:31;3.20;;;3.00;;
3004;SDS011;1512;51.486;6.610;2023-04-01T23:59:40;7.40;;;4.00;;
